Terminal Aerodrome Forecast
Issued by NWS

Home | Current Version | Previous Version | Text Only | Print | Product List | Glossary On
Versions: 1 2 3 4 5 6 7 8 9 10 11 12 13 14 15 16 17 18 19 20 21 22 23 24 25 26 27 28 29 30 31 32 33 34 35 36 37 38 39 40 41 42 43
000
FTUS42 KRAH 011137
TAFINT
TAF
KINT 011137Z 0112/0212 VRB03KT 6SM -FZRA BR OVC018
     FM011400 VRB03KT 5SM -FZRA BR OVC010 WS018/16025KT
     FM011800 03006KT 3SM -RA BR OVC005
     FM012200 VRB03KT 2SM -DZ BR OVC005=

USA.gov is the U.S. government's official web portal to all federal, state and local government web resources and services.